createdAt,value
2016-08-19T00:00:45.992Z,0
2016-08-19T00:01:46.659Z,0
2016-08-19T00:02:47.326Z,0
2016-08-19T00:03:45.904Z,0
2016-08-19T00:04:46.565Z,0
2016-08-19T00:05:46.534Z,0
2016-08-19T00:06:47.196Z,0
2016-08-19T00:07:46.467Z,0
2016-08-19T00:08:46.434Z,0
2016-08-19T00:09:45.706Z,0
2016-08-19T00:10:44.979Z,0
2016-08-19T00:11:45.645Z,0
2016-08-19T00:12:47.010Z,0
2016-08-19T00:13:45.589Z,0
2016-08-19T00:14:46.244Z,0
2016-08-19T00:15:46.214Z,0
2016-08-19T00:16:46.885Z,0
2016-08-19T00:17:46.158Z,0
2016-08-19T00:18:46.127Z,0
2016-08-19T00:19:46.087Z,0
2016-08-19T00:20:46.769Z,0
2016-08-19T00:21:46.719Z,0
2016-08-19T00:22:46.708Z,0
2016-08-19T00:23:45.971Z,0
2016-08-19T00:24:46.148Z,0
2016-08-19T00:25:45.900Z,0
2016-08-19T00:26:45.867Z,0
2016-08-19T00:27:45.839Z,0
2016-08-19T00:28:46.504Z,0
2016-08-19T00:29:46.473Z,0
2016-08-19T00:30:46.443Z,0
2016-08-19T00:31:46.407Z,0
2016-08-19T00:32:46.381Z,0
2016-08-19T00:33:46.349Z,0
2016-08-19T00:34:45.619Z,0
2016-08-19T00:35:45.588Z,0
2016-08-19T00:36:45.553Z,0
2016-08-19T00:37:45.545Z,0
2016-08-19T00:38:45.496Z,0
2016-08-19T00:39:46.153Z,0
2016-08-19T00:40:46.125Z,0
2016-08-19T00:41:45.400Z,0
2016-08-19T00:42:44.668Z,0
2016-08-19T00:43:46.030Z,0
2016-08-19T00:44:46.003Z,0
2016-08-19T00:45:45.974Z,0
2016-08-19T00:46:45.238Z,0
2016-08-19T00:47:45.207Z,0
2016-08-19T00:48:45.868Z,0
2016-08-19T00:49:45.845Z,0
2016-08-19T00:50:45.809Z,0
2016-08-19T00:51:44.383Z,0
2016-08-19T00:52:45.736Z,0
2016-08-19T00:53:45.010Z,0
2016-08-19T00:54:44.290Z,0
2016-08-19T00:55:44.948Z,0
2016-08-19T00:56:44.920Z,0
2016-08-19T00:57:45.587Z,0
2016-08-19T00:58:45.553Z,0
2016-08-19T00:59:44.821Z,0
2016-08-19T01:00:44.794Z,0
2016-08-19T01:01:45.459Z,0
2016-08-19T01:02:45.419Z,0
2016-08-19T01:03:45.395Z,0
2016-08-19T01:04:45.363Z,0
2016-08-19T01:05:44.648Z,0
2016-08-19T01:06:45.304Z,0
2016-08-19T01:07:45.271Z,0
2016-08-19T01:08:45.236Z,0
2016-08-19T01:09:44.508Z,0
2016-08-19T01:10:45.175Z,0
2016-08-19T01:11:44.448Z,0
2016-08-19T01:12:45.108Z,0
2016-08-19T01:13:44.393Z,0
2016-08-19T01:14:45.041Z,0
2016-08-19T01:15:45.014Z,0
2016-08-19T01:16:44.984Z,0
2016-08-19T01:17:44.963Z,0
2016-08-19T01:18:44.229Z,0
2016-08-19T01:19:43.499Z,0
2016-08-19T01:20:44.858Z,0
2016-08-19T01:21:44.124Z,0
2016-08-19T01:22:44.781Z,0
2016-08-19T01:23:44.756Z,0
2016-08-19T01:24:44.028Z,0
2016-08-19T01:25:44.694Z,0
2016-08-19T01:26:43.966Z,0
2016-08-19T01:27:44.631Z,0
2016-08-19T01:28:43.903Z,0
2016-08-19T01:29:43.864Z,0
2016-08-19T01:30:43.845Z,0
2016-08-19T01:31:43.806Z,0
2016-08-19T01:32:43.074Z,0
2016-08-19T01:33:43.752Z,0
2016-08-19T01:34:44.410Z,0
2016-08-19T01:35:44.382Z,0
2016-08-19T01:36:44.346Z,0
2016-08-19T01:37:43.627Z,0
2016-08-19T01:38:43.584Z,0
2016-08-19T01:39:44.244Z,0
2016-08-19T01:40:44.221Z,0
2016-08-19T01:41:44.189Z,0
2016-08-19T01:42:42.761Z,0
2016-08-19T01:43:44.124Z,0
2016-08-19T01:44:43.388Z,0
2016-08-19T01:45:43.360Z,0
2016-08-19T01:46:42.633Z,0
2016-08-19T01:47:43.314Z,0
2016-08-19T01:48:43.961Z,0
2016-08-19T01:49:43.924Z,0
2016-08-19T01:50:42.503Z,0
2016-08-19T01:51:43.164Z,0
2016-08-19T01:52:43.140Z,0
2016-08-19T01:53:43.105Z,0
2016-08-19T01:54:43.775Z,0
2016-08-19T01:55:43.046Z,0
2016-08-19T01:56:43.007Z,0
2016-08-19T01:57:43.673Z,0
2016-08-19T01:58:43.649Z,0
2016-08-19T01:59:42.915Z,0
2016-08-19T02:00:43.580Z,0
2016-08-19T02:01:43.551Z,0
2016-08-19T02:02:43.523Z,0
2016-08-19T02:03:43.483Z,0
2016-08-19T02:04:42.756Z,0
2016-08-19T02:05:43.422Z,0
2016-08-19T02:06:42.692Z,0
2016-08-19T02:07:43.363Z,0
2016-08-19T02:08:43.320Z,0
2016-08-19T02:09:41.908Z,0
2016-08-19T02:10:43.262Z,0
2016-08-19T02:11:43.237Z,0
2016-08-19T02:12:43.204Z,0
2016-08-19T02:13:43.170Z,0
2016-08-19T02:14:41.744Z,0
2016-08-19T02:15:42.409Z,0
2016-08-19T02:16:43.070Z,0
2016-08-19T02:17:41.655Z,0
2016-08-19T02:18:42.318Z,0
2016-08-19T02:19:42.977Z,0
2016-08-19T02:20:42.247Z,0
2016-08-19T02:21:42.916Z,0
2016-08-19T02:22:42.187Z,0
2016-08-19T02:23:42.856Z,0
2016-08-19T02:24:42.828Z,0
2016-08-19T02:25:42.091Z,0
2016-08-19T02:26:42.062Z,0
2016-08-19T02:27:42.719Z,0
2016-08-19T02:28:42.009Z,0
2016-08-19T02:29:42.663Z,0
2016-08-19T02:30:41.933Z,0
2016-08-19T02:31:42.600Z,0
2016-08-19T02:32:41.869Z,0
2016-08-19T02:33:41.844Z,0
2016-08-19T02:34:42.503Z,0
2016-08-19T02:35:42.473Z,0
2016-08-19T02:36:41.049Z,0
2016-08-19T02:37:42.407Z,0
2016-08-19T02:38:42.401Z,0
2016-08-19T02:39:42.346Z,0
2016-08-19T02:40:41.626Z,0
2016-08-19T02:41:42.282Z,0
2016-08-19T02:42:40.864Z,0
2016-08-19T02:43:41.519Z,0
2016-08-19T02:44:42.185Z,0
2016-08-19T02:45:41.457Z,0
2016-08-19T02:46:42.132Z,0
2016-08-19T02:47:42.094Z,0
2016-08-19T02:48:41.366Z,0
2016-08-19T02:49:42.026Z,0
2016-08-19T02:50:40.602Z,0
2016-08-19T02:51:41.965Z,0
2016-08-19T02:52:39.857Z,0
2016-08-19T02:53:41.913Z,0
2016-08-19T02:54:41.167Z,0
2016-08-19T02:55:41.144Z,0
2016-08-19T02:56:41.806Z,0
2016-08-19T02:57:41.776Z,0
2016-08-19T02:58:41.048Z,0
2016-08-19T02:59:41.016Z,0
2016-08-19T03:00:40.993Z,0
2016-08-19T03:01:40.954Z,0
2016-08-19T03:02:41.620Z,0
2016-08-19T03:03:40.892Z,0
2016-08-19T03:04:40.865Z,0
2016-08-19T03:05:40.832Z,0
2016-08-19T03:06:41.489Z,0
2016-08-19T03:07:41.464Z,0
2016-08-19T03:08:40.740Z,0
2016-08-19T03:09:40.695Z,0
2016-08-19T03:10:39.275Z,0
2016-08-19T03:11:41.328Z,0
2016-08-19T03:12:40.606Z,0
2016-08-19T03:13:40.598Z,0
2016-08-19T03:14:41.246Z,0
2016-08-19T03:15:41.211Z,0
2016-08-19T03:16:40.479Z,0
2016-08-19T03:17:41.149Z,0
2016-08-19T03:18:41.115Z,0
2016-08-19T03:19:41.083Z,0
2016-08-19T03:20:39.657Z,0
2016-08-19T03:21:41.020Z,0
2016-08-19T03:22:39.588Z,0
2016-08-19T03:23:40.959Z,0
2016-08-19T03:24:39.531Z,0
2016-08-19T03:25:40.889Z,0
2016-08-19T03:26:40.857Z,0
2016-08-19T03:27:39.431Z,0
2016-08-19T03:28:40.797Z,0
2016-08-19T03:29:40.075Z,0
2016-08-19T03:30:40.034Z,0
2016-08-19T03:31:40.705Z,0
2016-08-19T03:32:39.972Z,0
2016-08-19T03:33:39.251Z,0
2016-08-19T03:34:39.912Z,0
2016-08-19T03:35:40.573Z,0
2016-08-19T03:36:39.844Z,0
2016-08-19T03:37:39.816Z,0
2016-08-19T03:38:40.483Z,0
2016-08-19T03:39:40.452Z,0
2016-08-19T03:40:40.419Z,0
2016-08-19T03:41:38.296Z,0
2016-08-19T03:42:39.655Z,0
2016-08-19T03:43:39.626Z,0
2016-08-19T03:44:40.295Z,0
2016-08-19T03:45:39.565Z,0
2016-08-19T03:46:39.546Z,0
2016-08-19T03:47:39.497Z,0
2016-08-19T03:48:40.160Z,0
2016-08-19T03:49:40.133Z,0
2016-08-19T03:50:39.409Z,4
2016-08-19T03:51:40.158Z,4
2016-08-19T03:52:40.043Z,0
2016-08-19T03:53:40.012Z,4
2016-08-19T03:54:39.275Z,4
2016-08-19T03:55:39.948Z,4
2016-08-19T03:56:38.528Z,4
2016-08-19T03:57:38.491Z,4
2016-08-19T03:58:39.151Z,4
2016-08-19T03:59:39.116Z,8
2016-08-19T04:00:39.090Z,4
2016-08-19T04:01:39.059Z,8
2016-08-19T04:02:39.723Z,4
2016-08-19T04:03:39.704Z,8
2016-08-19T04:04:39.652Z,4
2016-08-19T04:05:38.237Z,8
2016-08-19T04:06:39.602Z,8
2016-08-19T04:07:39.569Z,16
2016-08-19T04:08:38.835Z,20
2016-08-19T04:09:39.492Z,28
2016-08-19T04:10:38.770Z,32
2016-08-19T04:11:39.432Z,36
2016-08-19T04:12:38.702Z,44
2016-08-19T04:13:38.673Z,52
2016-08-19T04:14:37.941Z,64
2016-08-19T04:15:39.309Z,80
2016-08-19T04:16:39.281Z,92
2016-08-19T04:17:39.245Z,104
2016-08-19T04:18:39.213Z,100
2016-08-19T04:19:39.183Z,92
2016-08-19T04:20:39.151Z,80
2016-08-19T04:21:39.113Z,76
2016-08-19T04:22:38.386Z,72
2016-08-19T04:23:38.568Z,76
2016-08-19T04:24:38.527Z,88
2016-08-19T04:25:38.316Z,96
2016-08-19T04:26:38.959Z,112
2016-08-19T04:27:38.923Z,136
2016-08-19T04:28:38.893Z,160
2016-08-19T04:29:38.876Z,188
2016-08-19T04:30:37.431Z,216
2016-08-19T04:31:38.797Z,248
2016-08-19T04:32:38.763Z,292
2016-08-19T04:33:38.038Z,332
2016-08-19T04:34:38.703Z,376
2016-08-19T04:35:38.666Z,416
2016-08-19T04:36:37.245Z,444
2016-08-19T04:37:38.608Z,452
2016-08-19T04:38:38.571Z,452
2016-08-19T04:39:38.543Z,460
2016-08-19T04:40:37.810Z,476
2016-08-19T04:41:38.477Z,508
2016-08-19T04:42:37.055Z,560
2016-08-19T04:43:38.414Z,612
2016-08-19T04:44:37.683Z,620
2016-08-19T04:45:38.362Z,556
2016-08-19T04:46:38.326Z,480
2016-08-19T04:47:38.287Z,436
2016-08-19T04:48:37.557Z,444
2016-08-19T04:49:36.830Z,464
2016-08-19T04:50:36.813Z,488
2016-08-19T04:51:38.161Z,492
2016-08-19T04:52:37.449Z,512
2016-08-19T04:53:37.395Z,552
2016-08-19T04:54:35.971Z,520
2016-08-19T04:55:38.031Z,532
2016-08-19T04:56:37.990Z,484
2016-08-19T04:57:37.965Z,464
2016-08-19T04:58:37.238Z,460
2016-08-19T04:59:37.209Z,460
2016-08-19T05:00:36.482Z,484
2016-08-19T05:01:37.839Z,540
2016-08-19T05:02:37.809Z,544
2016-08-19T05:03:36.386Z,552
2016-08-19T05:04:37.050Z,552
2016-08-19T05:05:37.725Z,592
2016-08-19T05:06:37.684Z,592
2016-08-19T05:07:36.259Z,636
2016-08-19T05:08:37.617Z,680
2016-08-19T05:09:36.889Z,752
2016-08-19T05:10:36.862Z,864
2016-08-19T05:11:36.826Z,936
2016-08-19T05:12:37.487Z,1040
2016-08-19T05:13:35.376Z,1104
2016-08-19T05:14:37.430Z,1232
2016-08-19T05:15:36.705Z,1388
2016-08-19T05:16:37.368Z,1560
2016-08-19T05:17:37.330Z,1592
2016-08-19T05:18:35.911Z,1636
2016-08-19T05:19:35.898Z,1764
2016-08-19T05:20:35.856Z,1976
2016-08-19T05:21:37.220Z,2296
2016-08-19T05:22:37.190Z,2568
2016-08-19T05:23:37.149Z,2432
2016-08-19T05:24:35.723Z,2404
2016-08-19T05:25:35.689Z,2528
2016-08-19T05:26:37.056Z,2660
2016-08-19T05:27:36.329Z,2752
2016-08-19T05:28:36.292Z,2668
2016-08-19T05:29:36.952Z,2784
2016-08-19T05:30:35.526Z,3048
2016-08-19T05:31:36.892Z,3224
2016-08-19T05:32:36.885Z,3112
2016-08-19T05:33:36.828Z,3220
2016-08-19T05:34:36.103Z,3584
2016-08-19T05:35:36.080Z,3904
2016-08-19T05:36:36.739Z,4260
2016-08-19T05:37:35.311Z,4308
2016-08-19T05:38:36.682Z,3984
2016-08-19T05:39:36.644Z,3508
2016-08-19T05:40:35.218Z,3468
2016-08-19T05:41:35.882Z,3588
2016-08-19T05:42:35.867Z,3804
2016-08-19T05:43:35.826Z,3796
2016-08-19T05:44:36.482Z,4084
2016-08-19T05:45:35.762Z,4640
2016-08-19T05:46:36.425Z,5088
2016-08-19T05:47:36.400Z,4880
2016-08-19T05:48:36.362Z,5108
2016-08-19T05:49:34.938Z,5588
2016-08-19T05:50:36.310Z,5772
2016-08-19T05:51:36.275Z,5308
2016-08-19T05:52:36.253Z,5624
2016-08-19T05:53:35.518Z,6772
2016-08-19T05:54:35.479Z,7580
2016-08-19T05:55:34.076Z,7972
2016-08-19T05:56:35.421Z,7256
2016-08-19T05:57:36.090Z,12244
2016-08-19T05:58:35.361Z,7452
2016-08-19T05:59:36.021Z,7372
2016-08-19T06:00:35.294Z,7088
2016-08-19T06:01:35.964Z,6220
2016-08-19T06:02:35.247Z,5064
2016-08-19T06:03:35.902Z,4496
2016-08-19T06:04:35.874Z,4176
2016-08-19T06:05:35.153Z,4296
2016-08-19T06:06:35.813Z,4784
2016-08-19T06:07:34.387Z,5160
2016-08-19T06:08:35.053Z,5632
2016-08-19T06:09:35.021Z,6140
2016-08-19T06:10:34.995Z,6836
2016-08-19T06:11:34.961Z,6720
2016-08-19T06:12:34.929Z,6356
2016-08-19T06:13:34.897Z,5928
2016-08-19T06:14:34.870Z,5484
2016-08-19T06:15:35.537Z,5076
2016-08-19T06:16:35.507Z,5152
2016-08-19T06:17:34.773Z,5448
2016-08-19T06:18:35.443Z,5584
2016-08-19T06:19:34.723Z,7272
2016-08-19T06:20:34.679Z,9404
2016-08-19T06:21:35.355Z,8856
2016-08-19T06:22:34.629Z,8368
2016-08-19T06:23:35.301Z,8744
2016-08-19T06:24:35.257Z,8596
2016-08-19T06:25:35.224Z,8236
2016-08-19T06:26:34.500Z,9836
2016-08-19T06:27:35.170Z,11980
2016-08-19T06:28:34.454Z,13588
2016-08-19T06:29:34.415Z,14780
2016-08-19T06:30:35.075Z,17664
2016-08-19T06:31:35.049Z,21600
2016-08-19T06:32:33.630Z,22208
2016-08-19T06:33:34.984Z,19616
2016-08-19T06:34:34.954Z,20576
2016-08-19T06:35:34.233Z,19744
2016-08-19T06:36:34.203Z,18816
2016-08-19T06:37:34.173Z,28992
2016-08-19T06:38:34.839Z,48704
2016-08-19T06:39:33.420Z,56864
2016-08-19T06:40:34.778Z,58592
2016-08-19T06:41:33.354Z,61664
2016-08-19T06:42:34.029Z,64576
2016-08-19T06:43:34.694Z,65632
2016-08-19T06:44:34.660Z,66592
2016-08-19T06:45:34.642Z,65728
2016-08-19T06:46:33.932Z,68416
2016-08-19T06:47:34.587Z,66432
2016-08-19T06:48:33.161Z,65568
2016-08-19T06:49:33.835Z,68416
2016-08-19T06:50:34.510Z,69696
2016-08-19T06:51:34.480Z,70688
2016-08-19T06:52:34.463Z,72544
2016-08-19T06:53:34.429Z,73120
2016-08-19T06:54:33.012Z,72384
2016-08-19T06:55:33.688Z,72000
2016-08-19T06:56:33.654Z,72896
2016-08-19T06:57:34.332Z,74528
2016-08-19T06:58:33.611Z,75776
2016-08-19T06:59:32.888Z,72192
2016-08-19T07:00:33.584Z,74720
2016-08-19T07:01:34.241Z,75648
2016-08-19T07:02:33.518Z,77536
2016-08-19T07:03:33.498Z,77568
2016-08-19T07:04:34.170Z,80640
2016-08-19T07:05:33.460Z,79744
2016-08-19T07:06:33.428Z,81376
2016-08-19T07:07:34.122Z,83520
2016-08-19T07:08:33.384Z,86912
2016-08-19T07:09:34.062Z,83680
2016-08-19T07:10:33.352Z,78688
2016-08-19T07:11:32.630Z,77632
2016-08-19T07:12:33.990Z,26816
2016-08-19T07:13:32.592Z,23744
2016-08-19T07:14:33.448Z,20704
2016-08-19T07:15:33.235Z,21152
2016-08-19T07:16:33.925Z,27168
2016-08-19T07:17:32.494Z,23296
2016-08-19T07:18:32.472Z,17984
2016-08-19T07:19:32.457Z,20960
2016-08-19T07:20:32.436Z,20640
2016-08-19T07:21:33.109Z,18976
2016-08-19T07:22:33.787Z,17920
2016-08-19T07:23:32.370Z,17664
2016-08-19T07:24:33.739Z,12568
2016-08-19T07:25:33.026Z,9644
2016-08-19T07:26:33.694Z,8360
2016-08-19T07:27:32.280Z,7520
2016-08-19T07:28:32.260Z,7044
2016-08-19T07:29:33.625Z,7440
2016-08-19T07:30:32.908Z,7600
2016-08-19T07:31:32.200Z,8264
2016-08-19T07:32:32.169Z,10432
2016-08-19T07:33:32.836Z,12404
2016-08-19T07:34:32.133Z,14216
2016-08-19T07:35:33.483Z,24288
2016-08-19T07:36:33.469Z,97856
2016-08-19T07:37:32.733Z,95008
2016-08-19T07:38:32.017Z,93312
2016-08-19T07:39:33.385Z,45664
2016-08-19T07:40:31.976Z,69024
2016-08-19T07:41:32.652Z,71200
2016-08-19T07:42:33.311Z,39904
2016-08-19T07:43:33.297Z,80704
2016-08-19T07:44:33.269Z,88544
2016-08-19T07:45:33.253Z,104160
2016-08-19T07:46:32.539Z,97984
2016-08-19T07:47:32.503Z,81344
2016-08-19T07:48:32.477Z,66912
2016-08-19T07:49:31.771Z,96576
2016-08-19T07:50:31.738Z,103296
2016-08-19T07:51:32.427Z,103904
2016-08-19T07:52:32.395Z,93824
2016-08-19T07:53:31.682Z,97504
2016-08-19T07:54:32.353Z,35744
2016-08-19T07:55:33.035Z,112096
2016-08-19T07:56:33.029Z,100352
2016-08-19T07:57:32.298Z,106176
2016-08-19T07:58:32.973Z,32864
2016-08-19T07:59:32.260Z,76320
2016-08-19T08:00:31.540Z,30336
2016-08-19T08:01:32.914Z,30144
2016-08-19T08:02:32.896Z,26240
2016-08-19T08:03:32.184Z,17312
2016-08-19T08:04:32.163Z,21216
2016-08-19T08:05:32.857Z,13612
2016-08-19T08:06:32.121Z,16284
2016-08-19T08:07:32.105Z,25056
2016-08-19T08:08:32.789Z,93376
2016-08-19T08:09:31.361Z,108160
2016-08-19T08:10:31.347Z,112736
2016-08-19T08:11:32.723Z,110272
2016-08-19T08:12:32.711Z,80256
2016-08-19T08:13:30.590Z,54016
2016-08-19T08:14:31.973Z,111520
2016-08-19T08:15:31.251Z,92192
2016-08-19T08:16:31.227Z,65824
2016-08-19T08:17:32.603Z,62464
2016-08-19T08:19:31.171Z,75200
2016-08-19T08:20:32.547Z,107232
2016-08-19T08:21:31.837Z,91904
2016-08-19T08:22:31.818Z,39936
2016-08-19T08:23:31.819Z,46048
2016-08-19T08:24:32.470Z,21920
2016-08-19T08:25:31.762Z,18528
2016-08-19T08:26:31.741Z,19040
2016-08-19T08:27:32.429Z,20800
2016-08-19T08:28:31.704Z,21120
2016-08-19T08:29:32.404Z,20608
2016-08-19T08:30:32.374Z,22080
2016-08-19T08:31:31.655Z,33344
2016-08-19T08:32:32.327Z,33376
2016-08-19T08:33:31.613Z,33280
2016-08-19T08:34:30.899Z,33696
2016-08-19T08:35:31.570Z,34208
2016-08-19T08:36:31.562Z,34656
2016-08-19T08:37:31.538Z,34112
2016-08-19T08:38:31.520Z,33472
2016-08-19T08:39:31.499Z,34176
2016-08-19T08:40:30.792Z,36352
2016-08-19T08:41:32.159Z,39232
2016-08-19T08:42:31.459Z,40384
2016-08-19T08:43:32.128Z,41760
2016-08-19T08:44:31.420Z,40768
2016-08-19T08:45:32.102Z,45088
2016-08-19T08:46:32.082Z,69600
2016-08-19T08:47:30.670Z,91680
2016-08-19T08:48:30.656Z,21888
2016-08-19T08:49:31.337Z,26368
2016-08-19T08:50:31.320Z,121056
2016-08-19T08:51:31.308Z,119648
2016-08-19T08:52:30.599Z,50272
2016-08-19T08:53:31.974Z,61472
2016-08-19T08:54:31.257Z,24288
2016-08-19T08:55:31.237Z,26752
2016-08-19T08:56:31.221Z,137568
2016-08-19T08:57:31.210Z,96544
2016-08-19T08:58:31.201Z,95584
2016-08-19T08:59:31.875Z,119168
2016-08-19T09:00:31.155Z,129792
2016-08-19T09:01:31.838Z,126656
2016-08-19T09:02:31.832Z,114176
2016-08-19T09:03:30.409Z,99648
2016-08-19T09:04:31.097Z,116384
2016-08-19T09:05:31.068Z,112384
2016-08-19T09:06:31.048Z,114848
2016-08-19T09:07:31.035Z,114016
2016-08-19T09:08:31.740Z,108608
2016-08-19T09:09:30.308Z,96320
2016-08-19T09:10:30.293Z,107936
2016-08-19T09:11:30.275Z,101888
2016-08-19T09:12:30.263Z,124352
2016-08-19T09:13:31.641Z,180160
2016-08-19T09:14:30.937Z,161600
2016-08-19T09:15:30.927Z,142624
2016-08-19T09:16:30.902Z,102592
2016-08-19T09:17:30.883Z,80672
2016-08-19T09:18:31.571Z,76160
2016-08-19T09:19:30.857Z,68128
2016-08-19T09:20:31.540Z,66432
2016-08-19T09:21:31.527Z,70656
2016-08-19T09:22:30.818Z,77536
2016-08-19T09:23:30.799Z,48736
2016-08-19T09:24:31.490Z,43104
2016-08-19T09:25:31.488Z,51040
2016-08-19T09:26:30.767Z,34944
2016-08-19T09:27:30.747Z,38688
2016-08-19T09:28:30.733Z,44160
2016-08-19T09:29:31.418Z,47552
2016-08-19T09:30:30.708Z,37056
2016-08-19T09:31:31.385Z,33792
2016-08-19T09:32:31.382Z,37600
2016-08-19T09:33:29.974Z,46816
2016-08-19T09:34:30.672Z,42848
2016-08-19T09:35:30.628Z,46208
2016-08-19T09:36:31.307Z,43296
2016-08-19T09:37:31.294Z,45664
2016-08-19T09:38:30.582Z,39008
2016-08-19T09:39:29.864Z,41760
2016-08-19T09:40:31.237Z,49280
2016-08-19T09:41:30.523Z,57760
2016-08-19T09:42:31.203Z,72704
2016-08-19T09:43:30.487Z,75456
2016-08-19T09:44:30.464Z,69024
2016-08-19T09:45:29.759Z,60672
2016-08-19T09:46:30.433Z,51616
2016-08-19T09:47:29.722Z,48800
2016-08-19T09:48:30.397Z,48384
2016-08-19T09:49:30.378Z,47456
2016-08-19T09:50:31.062Z,56384
2016-08-19T09:51:31.030Z,52480
2016-08-19T09:52:30.320Z,57792
2016-08-19T09:53:30.299Z,48032
2016-08-19T09:54:30.288Z,49472
2016-08-19T09:55:30.266Z,56512
2016-08-19T09:56:30.944Z,63072
2016-08-19T09:57:30.924Z,60736
2016-08-19T09:58:30.902Z,56096
2016-08-19T09:59:30.200Z,57312
2016-08-19T10:00:30.172Z,56768
2016-08-19T10:01:30.853Z,65824
2016-08-19T10:02:30.826Z,70368
2016-08-19T10:03:30.808Z,78560
2016-08-19T10:04:30.093Z,57760
2016-08-19T10:05:29.372Z,53952
2016-08-19T10:06:29.347Z,44256
2016-08-19T10:07:29.334Z,52480
2016-08-19T10:08:28.618Z,56512
2016-08-19T10:09:29.295Z,51616
2016-08-19T10:10:29.969Z,45632
2016-08-19T10:11:29.250Z,52320
2016-08-19T10:12:29.930Z,45824
2016-08-19T10:13:29.212Z,44448
2016-08-19T10:14:29.890Z,43392
2016-08-19T10:15:29.871Z,44384
2016-08-19T10:16:29.853Z,42752
2016-08-19T10:17:29.139Z,42624
2016-08-19T10:18:29.116Z,41280
2016-08-19T10:19:29.791Z,41216
2016-08-19T10:20:30.470Z,44544
2016-08-19T10:21:29.744Z,41120
2016-08-19T10:22:30.427Z,38432
2016-08-19T10:23:30.404Z,37440
2016-08-19T10:24:29.697Z,40672
2016-08-19T10:25:29.662Z,39200
2016-08-19T10:26:28.944Z,37152
2016-08-19T10:27:28.931Z,36768
2016-08-19T10:28:29.609Z,39520
2016-08-19T10:29:30.283Z,41600
2016-08-19T10:30:30.264Z,41536
2016-08-19T10:31:30.251Z,37088
2016-08-19T10:32:28.124Z,36224
2016-08-19T10:33:30.196Z,37056
2016-08-19T10:34:30.182Z,39776
2016-08-19T10:35:30.152Z,52704
2016-08-19T10:36:29.435Z,48416
2016-08-19T10:37:30.118Z,38464
2016-08-19T10:38:29.388Z,39200
2016-08-19T10:39:29.372Z,37344
2016-08-19T10:40:30.045Z,36192
2016-08-19T10:41:30.021Z,37568
2016-08-19T10:42:29.306Z,36576
2016-08-19T10:43:29.285Z,39040
2016-08-19T10:44:29.959Z,39360
2016-08-19T10:45:29.241Z,40576
2016-08-19T10:46:29.221Z,37792
2016-08-19T10:47:29.199Z,42016
2016-08-19T10:48:29.873Z,49824
2016-08-19T10:49:29.856Z,50048
2016-08-19T10:50:29.135Z,37760
2016-08-19T10:51:29.110Z,34208
2016-08-19T10:52:29.795Z,35840
2016-08-19T10:53:29.767Z,33248
2016-08-19T10:54:29.049Z,34368
2016-08-19T10:55:29.030Z,31488
2016-08-19T10:56:29.012Z,35648
2016-08-19T10:57:28.985Z,34592
2016-08-19T10:58:29.666Z,36256
2016-08-19T10:59:29.636Z,38208
2016-08-19T11:00:28.933Z,31808
2016-08-19T11:01:29.614Z,27744
2016-08-19T11:02:28.877Z,28352
2016-08-19T11:03:29.566Z,33696
2016-08-19T11:04:29.544Z,54688
2016-08-19T11:05:29.514Z,85792
2016-08-19T11:06:28.102Z,37088
2016-08-19T11:07:29.472Z,39296
2016-08-19T11:08:28.053Z,86208
2016-08-19T11:09:28.033Z,26752
2016-08-19T11:10:29.408Z,32608
2016-08-19T11:11:28.690Z,28000
2016-08-19T11:12:29.361Z,28192
2016-08-19T11:13:28.652Z,34560
2016-08-19T11:14:28.628Z,29952
2016-08-19T11:15:28.609Z,46720
2016-08-19T11:16:27.881Z,63424
2016-08-19T11:17:29.259Z,30304
2016-08-19T11:18:29.238Z,36960
2016-08-19T11:19:28.524Z,30816
2016-08-19T11:20:28.499Z,28480
2016-08-19T11:21:27.775Z,25312
2016-08-19T11:22:27.755Z,23456
2016-08-19T11:23:29.131Z,25504
2016-08-19T11:24:27.730Z,28320
2016-08-19T11:25:29.092Z,27680
2016-08-19T11:26:29.059Z,27040
2016-08-19T11:27:28.341Z,27008
2016-08-19T11:28:27.626Z,24576
2016-08-19T11:29:28.300Z,24768
2016-08-19T11:30:27.585Z,21888
2016-08-19T11:31:28.265Z,21248
2016-08-19T11:32:27.534Z,23040
2016-08-19T11:33:28.909Z,20640
2016-08-19T11:34:28.889Z,19936
2016-08-19T11:35:28.181Z,19424
2016-08-19T11:36:28.841Z,18880
2016-08-19T11:37:28.832Z,18784
2016-08-19T11:38:26.704Z,20544
2016-08-19T11:39:28.080Z,21376
2016-08-19T11:40:28.060Z,22336
2016-08-19T11:41:28.738Z,23232
2016-08-19T11:42:28.002Z,23296
2016-08-19T11:43:27.986Z,23232
2016-08-19T11:44:28.671Z,22688
2016-08-19T11:45:28.647Z,21984
2016-08-19T11:46:27.921Z,21984
2016-08-19T11:47:28.593Z,21856
2016-08-19T11:48:27.174Z,21856
2016-08-19T11:49:28.539Z,21696
2016-08-19T11:50:27.822Z,21120
2016-08-19T11:51:27.801Z,21056
2016-08-19T11:52:27.771Z,20608
2016-08-19T11:53:28.445Z,20224
2016-08-19T11:54:27.726Z,19392
2016-08-19T11:55:27.705Z,18688
2016-08-19T11:56:28.383Z,18272
2016-08-19T11:57:27.666Z,18016
2016-08-19T11:58:28.327Z,17728
2016-08-19T11:59:28.298Z,17472
2016-08-19T12:00:28.279Z,17312
2016-08-19T12:01:27.562Z,17280
2016-08-19T12:02:28.234Z,16880
2016-08-19T12:03:28.215Z,16664
2016-08-19T12:04:28.189Z,16628
2016-08-19T12:05:28.167Z,16520
2016-08-19T12:06:27.462Z,16420
2016-08-19T12:07:28.112Z,16456
2016-08-19T12:08:28.098Z,16540
2016-08-19T12:09:27.372Z,16716
2016-08-19T12:10:27.349Z,16716
2016-08-19T12:11:28.022Z,16644
2016-08-19T12:12:27.303Z,16220
2016-08-19T12:13:27.274Z,15664
2016-08-19T12:14:27.953Z,15576
2016-08-19T12:15:27.960Z,15900
2016-08-19T12:16:27.215Z,15840
2016-08-19T12:17:27.199Z,15728
2016-08-19T12:18:26.460Z,15708
2016-08-19T12:19:27.829Z,15652
2016-08-19T12:20:27.805Z,15384
2016-08-19T12:21:26.393Z,15124
2016-08-19T12:22:27.063Z,15036
2016-08-19T12:23:27.733Z,14936
2016-08-19T12:24:27.704Z,14880
2016-08-19T12:25:26.999Z,15268
2016-08-19T12:26:26.965Z,15264
2016-08-19T12:27:26.943Z,15132
2016-08-19T12:28:26.228Z,15092
2016-08-19T12:29:26.892Z,15256
2016-08-19T12:30:27.560Z,15056
2016-08-19T12:31:27.545Z,14680
2016-08-19T12:32:27.519Z,14244
2016-08-19T12:33:26.809Z,14140
2016-08-19T12:34:26.766Z,14140
2016-08-19T12:35:26.750Z,14500
2016-08-19T12:36:27.425Z,14236
2016-08-19T12:37:26.697Z,14100
2016-08-19T12:38:25.976Z,14068
2016-08-19T12:39:26.651Z,14056
2016-08-19T12:40:26.626Z,14336
2016-08-19T12:41:27.318Z,14904
2016-08-19T12:42:27.271Z,15484
2016-08-19T12:43:27.238Z,15704
2016-08-19T12:44:26.531Z,15924
2016-08-19T12:45:25.808Z,16388
2016-08-19T12:46:26.478Z,16636
2016-08-19T12:47:26.471Z,17152
2016-08-19T12:48:26.432Z,17600
2016-08-19T12:49:25.023Z,17440
2016-08-19T12:50:25.683Z,17440
2016-08-19T12:51:26.354Z,17376
2016-08-19T12:52:27.026Z,17408
2016-08-19T12:53:26.307Z,17344
2016-08-19T12:54:25.587Z,17088
2016-08-19T12:55:26.259Z,16896
2016-08-19T12:56:25.535Z,16372
2016-08-19T12:57:26.911Z,15872
2016-08-19T12:58:26.884Z,15444
2016-08-19T12:59:26.853Z,15252
2016-08-19T13:00:25.447Z,14840
2016-08-19T13:01:26.812Z,14956
2016-08-19T13:02:26.103Z,14892
2016-08-19T13:03:25.370Z,14728
2016-08-19T13:04:25.341Z,14644
2016-08-19T13:05:26.022Z,14928
2016-08-19T13:06:25.989Z,15200
2016-08-19T13:07:26.668Z,14432
2016-08-19T13:08:26.639Z,13932
2016-08-19T13:09:25.927Z,14456
2016-08-19T13:10:25.897Z,14844
2016-08-19T13:11:25.873Z,14344
2016-08-19T13:12:25.854Z,13560
2016-08-19T13:13:24.448Z,13544
2016-08-19T13:14:25.799Z,13128
2016-08-19T13:15:25.079Z,13208
2016-08-19T13:16:25.057Z,13436
2016-08-19T13:17:25.727Z,12992
2016-08-19T13:18:25.707Z,12444
2016-08-19T13:19:26.396Z,12228
2016-08-19T13:20:25.658Z,11888
2016-08-19T13:21:26.333Z,11784
2016-08-19T13:22:25.612Z,11844
2016-08-19T13:23:24.894Z,12044
2016-08-19T13:24:25.558Z,12364
2016-08-19T13:25:25.549Z,12748
2016-08-19T13:26:26.219Z,12764
2016-08-19T13:27:25.488Z,12384
2016-08-19T13:28:24.772Z,12172
2016-08-19T13:29:25.463Z,11916
2016-08-19T13:30:26.113Z,11664
2016-08-19T13:31:26.087Z,11696